Atyla — YJTM7 — position and weather

sailwx.info

Track history (hours):
 
Tides and Currents Weather Stations Pressure Air Temp Water Temp Dewpoint Dewpoint Depression Visibility Wind Speed Wind Dir Waves Ship Positions

Atyla

Ship's website: http://atylaship.com

Last reported at 2018-Sep-16 06:01 UTC. Time now 2018-Dec-11 01:14 UTC.
Position N 43°20' W 003°01'.
Warning: this ship's position is months out of date.

Length 24 m.

Type: Sailing vessel. MMSI: 577192000.

Date/timePositionNaut miles runAvg speedWind from/ knotsBaromVisibWave heightAir tempDewpointWater temp
2018-Sep-16 06:01N 43°20' W 003°01'0 5.3
2018-Sep-16 06:00N 43°20' W 003°01'4 4.3
2018-Sep-16 05:06N 43°23' W 003°05'1 4.2
2018-Sep-16 04:58N 43°23' W 003°05'2 4.4
2018-Sep-16 04:30N 43°25' W 003°07'2 4.1
2018-Sep-16 04:03N 43°26' W 003°09'0 4.3
2018-Sep-16 04:00N 43°26' W 003°09'2 3.9
2018-Sep-16 03:26N 43°28' W 003°11'  
2018-Sep-12 23:58N 48°12' W 005°25'141 4.3
2018-Sep-11 15:07N 49°42' W 002°41'4 5.4
2018-Sep-11 14:22N 49°43' W 002°35'3 5.5
2018-Sep-11 13:53N 49°45' W 002°32'3 5.4
2018-Sep-11 13:25N 49°47' W 002°29'3 4.8
2018-Sep-11 12:54N 49°49' W 002°27'2 3.5
2018-Sep-11 12:24N 49°50' W 002°26'3 4.1
2018-Sep-11 11:45N 49°49' W 002°22'2 4.5
2018-Sep-11 11:18N 49°48' W 002°20'1 4.4
2018-Sep-11 10:58N 49°47' W 002°18'1 2.3
2018-Sep-11 10:30N 49°47' W 002°16'2 3.6
2018-Sep-11 09:58N 49°49' W 002°18'2 4.2
2018-Sep-11 09:23N 49°51' W 002°21'2 3.2
2018-Sep-11 08:47N 49°51' W 002°24'3 4.4
2018-Sep-11 08:08N 49°48' W 002°24'0 4.2
2018-Sep-11 08:03N 49°48' W 002°24'1 4.1
2018-Sep-11 07:51N 49°47' W 002°24'1 2.1
2018-Sep-11 07:28N 49°47' W 002°25'1 2.6
2018-Sep-11 06:55N 49°48' W 002°27'2 3.1
2018-Sep-11 06:14N 49°50' W 002°29'1 1.1
2018-Sep-11 05:44N 49°49' W 002°28'1 2.5
2018-Sep-11 05:24N 49°49' W 002°27'1 3.2
2018-Sep-11 04:57N 49°49' W 002°25'2 4.2
2018-Sep-11 04:25N 49°49' W 002°21'2 5.4
2018-Sep-11 04:01N 49°49' W 002°18'0 5.2
2018-Sep-11 03:59N 49°49' W 002°17'18 8.5
2018-Sep-11 01:49N 49°49' W 001°49'3 8.9
2018-Sep-11 01:30N 49°48' W 001°45'4 8.5
2018-Sep-11 01:03N 49°48' W 001°39'0 8.6
2018-Sep-11 01:00N 49°48' W 001°38'4 8.3
2018-Sep-11 00:30N 49°47' W 001°32'3 7.4
2018-Sep-11 00:03N 49°47' W 001°27'0 7.5
2018-Sep-11 00:00N 49°47' W 001°26'4 6.8
2018-Sep-10 23:28N 49°47' W 001°20'34 3.7
2018-Sep-10 14:29N 49°35' W 000°32'4 7.2
2018-Sep-10 13:59N 49°34' W 000°26'4 7.3
2018-Sep-10 13:28N 49°33' W 000°21'3 7.7
2018-Sep-10 13:03N 49°33' W 000°16'0 7.8
2018-Sep-10 13:00N 49°33' W 000°15'4 7.5
2018-Sep-10 12:31N 49°32' W 000°10'3 7.1
2018-Sep-10 12:03N 49°31' W 000°05'0 7.0
2018-Sep-10 12:00N 49°31' W 000°04'6 6.5
2018-Sep-10 11:08N 49°30' E 000°04'1 5.8
2018-Sep-10 11:02N 49°29' E 000°05'0 6.3
2018-Sep-10 11:00N 49°29' E 000°05'0 0.5
2018-Sep-10 10:29N 49°29' E 000°06'1 0.6
2018-Sep-10 08:43N 49°29' E 000°07'0 0.0
2018-Sep-10 08:29N 49°29' E 000°07'0 0.0
2018-Sep-10 07:59N 49°29' E 000°07'0 0.0
2018-Sep-10 07:29N 49°29' E 000°07'0 0.0
2018-Sep-10 07:02N 49°29' E 000°07'0 0.0
2018-Sep-10 06:59N 49°29' E 000°07'0 0.0
2018-Sep-10 06:29N 49°29' E 000°07'0 0.0
2018-Sep-09 13:24N 49°29' E 000°07'0 0.0
2018-Sep-09 13:03N 49°29' E 000°07'0 0.0
2018-Sep-09 12:57N 49°29' E 000°07'0 0.0
2018-Sep-09 12:30N 49°29' E 000°07'0 0.0
2018-Sep-09 12:03N 49°29' E 000°07'0 0.0
2018-Sep-09 12:00N 49°29' E 000°07'0 0.0
2018-Sep-09 11:30N 49°29' E 000°07'0 0.0
2018-Sep-09 11:03N 49°29' E 000°07'0 0.0
2018-Sep-09 10:57N 49°29' E 000°07'0 0.0
2018-Sep-09 10:30N 49°29' E 000°07'0 0.0
2018-Sep-09 10:03N 49°29' E 000°07'0 0.0
2018-Sep-09 10:00N 49°29' E 000°07'0 0.0
2018-Sep-09 09:30N 49°29' E 000°07'0 0.0
2018-Sep-09 09:03N 49°29' E 000°07'0 0.0
2018-Sep-09 09:00N 49°29' E 000°07'0 0.0
2018-Sep-09 08:18N 49°29' E 000°07'0 0.0
2018-Sep-09 08:00N 49°29' E 000°07'0 0.0
2018-Sep-09 07:27N 49°29' E 000°07'0 0.0
2018-Sep-09 07:03N 49°29' E 000°07'0 0.0
2018-Sep-09 07:00N 49°29' E 000°07'0 0.0
2018-Sep-09 06:30N 49°29' E 000°07'0 0.0
2018-Sep-09 06:00N 49°29' E 000°07'0 0.0
2018-Sep-09 05:30N 49°29' E 000°07'0 0.0
2018-Sep-09 05:03N 49°29' E 000°07'0 0.0
2018-Sep-09 05:00N 49°29' E 000°07'0 0.0
2018-Sep-09 04:30N 49°29' E 000°07'0 0.0
2018-Sep-09 04:03N 49°29' E 000°07'0 0.0
2018-Sep-09 04:00N 49°29' E 000°07'0 0.0
2018-Sep-09 03:30N 49°29' E 000°07'0 0.0
2018-Sep-09 03:03N 49°29' E 000°07'0 0.0
2018-Sep-09 03:00N 49°29' E 000°07'0 0.0
2018-Sep-09 02:30N 49°29' E 000°07'0 0.0
2018-Sep-09 02:03N 49°29' E 000°07'0 0.0
2018-Sep-09 02:00N 49°29' E 000°07'0 0.0
2018-Sep-09 01:27N 49°29' E 000°07'0 0.0
2018-Sep-09 01:03N 49°29' E 000°07'0 0.0
2018-Sep-09 01:00N 49°29' E 000°07'0 0.0
2018-Sep-09 00:30N 49°29' E 000°07'0 0.0
2018-Sep-09 00:03N 49°29' E 000°07'0 0.1
2018-Sep-08 23:57N 49°29' E 000°07'0 0.0
2018-Sep-08 23:30N 49°29' E 000°07'0 0.0
2018-Sep-08 23:03N 49°29' E 000°07'0 0.1
2018-Sep-08 23:00N 49°29' E 000°07'0 0.0
2018-Sep-08 22:30N 49°29' E 000°07'0 0.0
2018-Sep-08 22:03N 49°29' E 000°07'0 0.0
2018-Sep-08 22:00N 49°29' E 000°07'0 0.0
2018-Sep-08 21:30N 49°29' E 000°07'0 0.0
2018-Sep-08 21:03N 49°29' E 000°07'0 0.0
2018-Sep-08 21:00N 49°29' E 000°07'0 0.0
2018-Sep-08 20:30N 49°29' E 000°07'0 0.0
2018-Sep-08 20:03N 49°29' E 000°07'0 0.0
2018-Sep-08 20:00N 49°29' E 000°07'0 0.0
2018-Sep-08 19:30N 49°29' E 000°07'0 0.0
2018-Sep-08 19:03N 49°29' E 000°07'0 0.0
2018-Sep-08 19:00N 49°29' E 000°07'0 0.0
2018-Sep-08 18:30N 49°29' E 000°07'0 0.0
2018-Sep-08 18:03N 49°29' E 000°07'0 0.0
2018-Sep-08 18:00N 49°29' E 000°07'0 0.0
2018-Sep-08 17:30N 49°29' E 000°07'0 0.0
2018-Sep-08 17:03N 49°29' E 000°07'0 0.0
2018-Sep-08 17:00N 49°29' E 000°07'0 0.0
2018-Sep-08 16:30N 49°29' E 000°07'0 0.0
2018-Sep-08 16:03N 49°29' E 000°07'0 0.0
2018-Sep-08 16:00N 49°29' E 000°07'0 0.0
2018-Sep-08 15:30N 49°29' E 000°07'0 0.0
2018-Sep-08 15:03N 49°29' E 000°07'0 0.0
2018-Sep-08 15:00N 49°29' E 000°07'0 0.0
2018-Sep-08 14:03N 49°29' E 000°07'0 0.0
2018-Sep-08 14:00N 49°29' E 000°07'0 0.0
2018-Sep-08 13:30N 49°29' E 000°07'0 0.0
2018-Sep-08 13:03N 49°29' E 000°07'0 0.0
2018-Sep-08 13:00N 49°29' E 000°07'0 0.0
2018-Sep-08 12:27N 49°29' E 000°07'0 0.0
2018-Sep-08 12:03N 49°29' E 000°07'0 0.0
2018-Sep-08 11:57N 49°29' E 000°07'0 0.0
2018-Sep-08 11:30N 49°29' E 000°07'0 0.0
2018-Sep-08 11:03N 49°29' E 000°07'0 0.0
2018-Sep-08 11:00N 49°29' E 000°07'0 0.0
2018-Sep-08 10:30N 49°29' E 000°07'0 0.0
2018-Sep-08 10:03N 49°29' E 000°07'0 0.0
2018-Sep-08 10:00N 49°29' E 000°07'0 0.0
2018-Sep-08 09:30N 49°29' E 000°07'0 0.0
2018-Sep-08 09:03N 49°29' E 000°07'0 0.0
2018-Sep-08 09:00N 49°29' E 000°07'0 0.0
2018-Sep-08 08:28N 49°29' E 000°07'1 0.1
2018-Sep-07 12:02N 49°29' E 000°06'0 0.0
2018-Sep-07 11:59N 49°29' E 000°06'0 0.1
2018-Sep-07 11:29N 49°29' E 000°06'1 2.5
2018-Sep-07 11:03N 49°29' E 000°04'0 3.5
2018-Sep-07 11:00N 49°30' E 000°04'2 3.4
2018-Sep-07 10:30N 49°30' E 000°01'2 3.6
2018-Sep-07 10:03N 49°31' W 000°01'0 2.1
2018-Sep-07 09:59N 49°31' W 000°01'1 2.5
2018-Sep-07 09:29N 49°31' W 000°03'2 3.2
2018-Sep-07 09:01N 49°31' W 000°05'2 3.8
2018-Sep-07 08:30N 49°32' W 000°08'2 4.1
2018-Sep-07 08:03N 49°33' W 000°11'0 3.7
2018-Sep-07 07:59N 49°33' W 000°11'2 4.2
2018-Sep-07 07:30N 49°34' W 000°14'2 4.6
2018-Sep-07 07:02N 49°34' W 000°17'0 5.2
2018-Sep-07 07:00N 49°34' W 000°17'3 5.1
2018-Sep-07 06:29N 49°35' W 000°21'3 5.4
2018-Sep-07 05:59N 49°36' W 000°25'  
Track history (hours):
 
Tides and Currents Weather Stations Pressure Air Temp Water Temp Dewpoint Dewpoint Depression Visibility Wind Speed Wind Dir Waves Ship Positions

Atyla

Ship's website: http://atylaship.com

Last reported at 2018-Sep-16 06:01 UTC. Time now 2018-Dec-11 01:14 UTC.
Position N 43°20' W 003°01'.
Warning: this ship's position is months out of date.

Length 24 m.

Type: Sailing vessel. MMSI: 577192000.

Date/timePositionNaut miles runAvg speedWind from/ knotsBaromVisibWave heightAir tempDewpointWater temp
2018-Sep-16 06:01N 43°20' W 003°01'0 5.3
2018-Sep-16 06:00N 43°20' W 003°01'4 4.3
2018-Sep-16 05:06N 43°23' W 003°05'1 4.2
2018-Sep-16 04:58N 43°23' W 003°05'2 4.4
2018-Sep-16 04:30N 43°25' W 003°07'2 4.1
2018-Sep-16 04:03N 43°26' W 003°09'0 4.3
2018-Sep-16 04:00N 43°26' W 003°09'2 3.9
2018-Sep-16 03:26N 43°28' W 003°11'  
2018-Sep-12 23:58N 48°12' W 005°25'141 4.3
2018-Sep-11 15:07N 49°42' W 002°41'4 5.4
2018-Sep-11 14:22N 49°43' W 002°35'3 5.5
2018-Sep-11 13:53N 49°45' W 002°32'3 5.4
2018-Sep-11 13:25N 49°47' W 002°29'3 4.8
2018-Sep-11 12:54N 49°49' W 002°27'2 3.5
2018-Sep-11 12:24N 49°50' W 002°26'3 4.1
2018-Sep-11 11:45N 49°49' W 002°22'2 4.5
2018-Sep-11 11:18N 49°48' W 002°20'1 4.4
2018-Sep-11 10:58N 49°47' W 002°18'1 2.3
2018-Sep-11 10:30N 49°47' W 002°16'2 3.6
2018-Sep-11 09:58N 49°49' W 002°18'2 4.2
2018-Sep-11 09:23N 49°51' W 002°21'2 3.2
2018-Sep-11 08:47N 49°51' W 002°24'3 4.4
2018-Sep-11 08:08N 49°48' W 002°24'0 4.2
2018-Sep-11 08:03N 49°48' W 002°24'1 4.1
2018-Sep-11 07:51N 49°47' W 002°24'1 2.1
2018-Sep-11 07:28N 49°47' W 002°25'1 2.6
2018-Sep-11 06:55N 49°48' W 002°27'2 3.1
2018-Sep-11 06:14N 49°50' W 002°29'1 1.1
2018-Sep-11 05:44N 49°49' W 002°28'1 2.5
2018-Sep-11 05:24N 49°49' W 002°27'1 3.2
2018-Sep-11 04:57N 49°49' W 002°25'2 4.2
2018-Sep-11 04:25N 49°49' W 002°21'2 5.4
2018-Sep-11 04:01N 49°49' W 002°18'0 5.2
2018-Sep-11 03:59N 49°49' W 002°17'18 8.5
2018-Sep-11 01:49N 49°49' W 001°49'3 8.9
2018-Sep-11 01:30N 49°48' W 001°45'4 8.5
2018-Sep-11 01:03N 49°48' W 001°39'0 8.6
2018-Sep-11 01:00N 49°48' W 001°38'4 8.3
2018-Sep-11 00:30N 49°47' W 001°32'3 7.4
2018-Sep-11 00:03N 49°47' W 001°27'0 7.5
2018-Sep-11 00:00N 49°47' W 001°26'4 6.8
2018-Sep-10 23:28N 49°47' W 001°20'34 3.7
2018-Sep-10 14:29N 49°35' W 000°32'4 7.2
2018-Sep-10 13:59N 49°34' W 000°26'4 7.3
2018-Sep-10 13:28N 49°33' W 000°21'3 7.7
2018-Sep-10 13:03N 49°33' W 000°16'0 7.8
2018-Sep-10 13:00N 49°33' W 000°15'4 7.5
2018-Sep-10 12:31N 49°32' W 000°10'3 7.1
2018-Sep-10 12:03N 49°31' W 000°05'0 7.0
2018-Sep-10 12:00N 49°31' W 000°04'6 6.5
2018-Sep-10 11:08N 49°30' E 000°04'1 5.8
2018-Sep-10 11:02N 49°29' E 000°05'0 6.3
2018-Sep-10 11:00N 49°29' E 000°05'0 0.5
2018-Sep-10 10:29N 49°29' E 000°06'1 0.6
2018-Sep-10 08:43N 49°29' E 000°07'0 0.0
2018-Sep-10 08:29N 49°29' E 000°07'0 0.0
2018-Sep-10 07:59N 49°29' E 000°07'0 0.0
2018-Sep-10 07:29N 49°29' E 000°07'0 0.0
2018-Sep-10 07:02N 49°29' E 000°07'0 0.0
2018-Sep-10 06:59N 49°29' E 000°07'0 0.0
2018-Sep-10 06:29N 49°29' E 000°07'0 0.0
2018-Sep-09 13:24N 49°29' E 000°07'0 0.0
2018-Sep-09 13:03N 49°29' E 000°07'0 0.0
2018-Sep-09 12:57N 49°29' E 000°07'0 0.0
2018-Sep-09 12:30N 49°29' E 000°07'0 0.0
2018-Sep-09 12:03N 49°29' E 000°07'0 0.0
2018-Sep-09 12:00N 49°29' E 000°07'0 0.0
2018-Sep-09 11:30N 49°29' E 000°07'0 0.0
2018-Sep-09 11:03N 49°29' E 000°07'0 0.0
2018-Sep-09 10:57N 49°29' E 000°07'0 0.0
2018-Sep-09 10:30N 49°29' E 000°07'0 0.0
2018-Sep-09 10:03N 49°29' E 000°07'0 0.0
2018-Sep-09 10:00N 49°29' E 000°07'0 0.0
2018-Sep-09 09:30N 49°29' E 000°07'0 0.0
2018-Sep-09 09:03N 49°29' E 000°07'0 0.0
2018-Sep-09 09:00N 49°29' E 000°07'0 0.0
2018-Sep-09 08:18N 49°29' E 000°07'0 0.0
2018-Sep-09 08:00N 49°29' E 000°07'0 0.0
2018-Sep-09 07:27N 49°29' E 000°07'0 0.0
2018-Sep-09 07:03N 49°29' E 000°07'0 0.0
2018-Sep-09 07:00N 49°29' E 000°07'0 0.0
2018-Sep-09 06:30N 49°29' E 000°07'0 0.0
2018-Sep-09 06:00N 49°29' E 000°07'0 0.0
2018-Sep-09 05:30N 49°29' E 000°07'0 0.0
2018-Sep-09 05:03N 49°29' E 000°07'0 0.0
2018-Sep-09 05:00N 49°29' E 000°07'0 0.0
2018-Sep-09 04:30N 49°29' E 000°07'0 0.0
2018-Sep-09 04:03N 49°29' E 000°07'0 0.0
2018-Sep-09 04:00N 49°29' E 000°07'0 0.0
2018-Sep-09 03:30N 49°29' E 000°07'0 0.0
2018-Sep-09 03:03N 49°29' E 000°07'0 0.0
2018-Sep-09 03:00N 49°29' E 000°07'0 0.0
2018-Sep-09 02:30N 49°29' E 000°07'0 0.0
2018-Sep-09 02:03N 49°29' E 000°07'0 0.0
2018-Sep-09 02:00N 49°29' E 000°07'0 0.0
2018-Sep-09 01:27N 49°29' E 000°07'0 0.0
2018-Sep-09 01:03N 49°29' E 000°07'0 0.0
2018-Sep-09 01:00N 49°29' E 000°07'0 0.0
2018-Sep-09 00:30N 49°29' E 000°07'0 0.0
2018-Sep-09 00:03N 49°29' E 000°07'0 0.1
2018-Sep-08 23:57N 49°29' E 000°07'0 0.0
2018-Sep-08 23:30N 49°29' E 000°07'0 0.0
2018-Sep-08 23:03N 49°29' E 000°07'0 0.1
2018-Sep-08 23:00N 49°29' E 000°07'0 0.0
2018-Sep-08 22:30N 49°29' E 000°07'0 0.0
2018-Sep-08 22:03N 49°29' E 000°07'0 0.0
2018-Sep-08 22:00N 49°29' E 000°07'0 0.0
2018-Sep-08 21:30N 49°29' E 000°07'0 0.0
2018-Sep-08 21:03N 49°29' E 000°07'0 0.0
2018-Sep-08 21:00N 49°29' E 000°07'0 0.0
2018-Sep-08 20:30N 49°29' E 000°07'0 0.0
2018-Sep-08 20:03N 49°29' E 000°07'0 0.0
2018-Sep-08 20:00N 49°29' E 000°07'0 0.0
2018-Sep-08 19:30N 49°29' E 000°07'0 0.0
2018-Sep-08 19:03N 49°29' E 000°07'0 0.0
2018-Sep-08 19:00N 49°29' E 000°07'0 0.0
2018-Sep-08 18:30N 49°29' E 000°07'0 0.0
2018-Sep-08 18:03N 49°29' E 000°07'0 0.0
2018-Sep-08 18:00N 49°29' E 000°07'0 0.0
2018-Sep-08 17:30N 49°29' E 000°07'0 0.0
2018-Sep-08 17:03N 49°29' E 000°07'0 0.0
2018-Sep-08 17:00N 49°29' E 000°07'0 0.0
2018-Sep-08 16:30N 49°29' E 000°07'0 0.0
2018-Sep-08 16:03N 49°29' E 000°07'0 0.0
2018-Sep-08 16:00N 49°29' E 000°07'0 0.0
2018-Sep-08 15:30N 49°29' E 000°07'0 0.0
2018-Sep-08 15:03N 49°29' E 000°07'0 0.0
2018-Sep-08 15:00N 49°29' E 000°07'0 0.0
2018-Sep-08 14:03N 49°29' E 000°07'0 0.0
2018-Sep-08 14:00N 49°29' E 000°07'0 0.0
2018-Sep-08 13:30N 49°29' E 000°07'0 0.0
2018-Sep-08 13:03N 49°29' E 000°07'0 0.0
2018-Sep-08 13:00N 49°29' E 000°07'0 0.0
2018-Sep-08 12:27N 49°29' E 000°07'0 0.0
2018-Sep-08 12:03N 49°29' E 000°07'0 0.0
2018-Sep-08 11:57N 49°29' E 000°07'0 0.0
2018-Sep-08 11:30N 49°29' E 000°07'0 0.0
2018-Sep-08 11:03N 49°29' E 000°07'0 0.0
2018-Sep-08 11:00N 49°29' E 000°07'0 0.0
2018-Sep-08 10:30N 49°29' E 000°07'0 0.0
2018-Sep-08 10:03N 49°29' E 000°07'0 0.0
2018-Sep-08 10:00N 49°29' E 000°07'0 0.0
2018-Sep-08 09:30N 49°29' E 000°07'0 0.0
2018-Sep-08 09:03N 49°29' E 000°07'0 0.0
2018-Sep-08 09:00N 49°29' E 000°07'0 0.0
2018-Sep-08 08:28N 49°29' E 000°07'1 0.1
2018-Sep-07 12:02N 49°29' E 000°06'0 0.0
2018-Sep-07 11:59N 49°29' E 000°06'0 0.1
2018-Sep-07 11:29N 49°29' E 000°06'1 2.5
2018-Sep-07 11:03N 49°29' E 000°04'0 3.5
2018-Sep-07 11:00N 49°30' E 000°04'2 3.4
2018-Sep-07 10:30N 49°30' E 000°01'2 3.6
2018-Sep-07 10:03N 49°31' W 000°01'0 2.1
2018-Sep-07 09:59N 49°31' W 000°01'1 2.5
2018-Sep-07 09:29N 49°31' W 000°03'2 3.2
2018-Sep-07 09:01N 49°31' W 000°05'2 3.8
2018-Sep-07 08:30N 49°32' W 000°08'2 4.1
2018-Sep-07 08:03N 49°33' W 000°11'0 3.7
2018-Sep-07 07:59N 49°33' W 000°11'2 4.2
2018-Sep-07 07:30N 49°34' W 000°14'2 4.6
2018-Sep-07 07:02N 49°34' W 000°17'0 5.2
2018-Sep-07 07:00N 49°34' W 000°17'3 5.1
2018-Sep-07 06:29N 49°35' W 000°21'3 5.4
2018-Sep-07 05:59N 49°36' W 000°25'  

Dump ship's entire track history